HISTORICAL SENSOR DATA

Sensor Data Report

DB LIVE
CURRENT TIME--:--:--
DEVICE NETWORK Gateway Status
13 ESP · realtime ~1s · history 60s
Weather WS-MOD-01
OFFLINE
Actuator ACT-MOD-01
OFFLINE
Mainboard L3 MB-L3-01
OFFLINE
Mainboard L5 MB-L5-01
OFFLINE
Remote AC AC-REMOTE-01
OFFLINE
PZEM L3-01 PWR-L3-01
OFFLINE
PZEM L3-02 PWR-L3-02
OFFLINE
PZEM L3-03 PWR-L3-03
OFFLINE
PZEM L3-04 PWR-L3-04
OFFLINE
PZEM L5-01 PWR-L5-01
OFFLINE
PZEM L5-02 PWR-L5-02
OFFLINE
PZEM L5-03 PWR-L5-03
OFFLINE
PZEM L5-04 PWR-L5-04
OFFLINE
REPORT FILTER

Periode & Sensor

DATABASE HISTORY
RESET
QUICK RANGE Hari ini 7 hari 30 hari
PERIODE04 Aug 2026sampai 02 Sep 2026
TOTAL DATA40,278sensor readings
MINIMUM-0.50sesuai filter
AVERAGE56.78sesuai filter
MAXIMUM998.00sesuai filter
REPORT RESULT

Data Sensor

04/08/2026 — 02/09/2026 EXPORT CSV
NOTANGGALWAKTUDEVICECHANNELSENSORVALUEUNIT
10401 02/09/2026 14:55:34 MB-L5-01Mainboard Lantai 5 L5-LUX-02 Illuminance / LUX 2 155.60 lux
10402 02/09/2026 14:55:34 MB-L5-01Mainboard Lantai 5 L5-ST-01 Surface Temperature 1 30.30 °C
10403 02/09/2026 14:55:34 MB-L5-01Mainboard Lantai 5 L5-RAD-02 Radiation 2 1.00 W/m²
10404 02/09/2026 14:55:34 MB-L5-01Mainboard Lantai 5 L5-LUX-05 Illuminance / LUX 5 406.70 lux
10405 02/09/2026 14:55:34 MB-L5-01Mainboard Lantai 5 L5-AI-06 Analog Input 6 3.05 V
10406 02/09/2026 14:55:34 MB-L5-01Mainboard Lantai 5 L5-SHT-02-RH SHT20 2 Humidity 48.50 %RH
10407 02/09/2026 14:55:34 MB-L5-01Mainboard Lantai 5 L5-AI-05 Analog Input 5 3.05 V
10408 02/09/2026 14:55:34 MB-L5-01Mainboard Lantai 5 L5-SHT-03-T SHT20 3 Temperature 32.20 °C
10409 02/09/2026 14:55:34 MB-L5-01Mainboard Lantai 5 L5-SHT-02-T SHT20 2 Temperature 32.30 °C
10410 02/09/2026 14:55:34 MB-L5-01Mainboard Lantai 5 L5-SHT-03-RH SHT20 3 Humidity 49.30 %RH
10411 02/09/2026 14:55:34 MB-L5-01Mainboard Lantai 5 L5-AI-04 Analog Input 4 3.05 V
10412 02/09/2026 14:55:34 MB-L5-01Mainboard Lantai 5 L5-AI-03 Analog Input 3 3.05 V
10413 02/09/2026 14:55:34 MB-L5-01Mainboard Lantai 5 L5-RAD-01 Radiation 1 1.00 W/m²
10414 02/09/2026 14:55:34 MB-L5-01Mainboard Lantai 5 L5-AI-02 Analog Input 2 3.05 V
10415 02/09/2026 14:55:34 MB-L5-01Mainboard Lantai 5 L5-SHT-01-RH SHT20 1 Humidity 48.40 %RH
10416 02/09/2026 14:55:34 MB-L5-01Mainboard Lantai 5 L5-LUX-01 Illuminance / LUX 1 215.30 lux
10417 02/09/2026 14:55:34 MB-L5-01Mainboard Lantai 5 L5-AI-01 Analog Input 1 3.05 V
10418 02/09/2026 14:55:34 MB-L5-01Mainboard Lantai 5 L5-BGT-03 Black Globe Temperature 3 29.80 °C
10419 02/09/2026 14:55:34 MB-L5-01Mainboard Lantai 5 L5-LUX-03 Illuminance / LUX 3 166.00 lux
10420 02/09/2026 14:55:34 MB-L5-01Mainboard Lantai 5 L5-BGT-02 Black Globe Temperature 2 29.90 °C
10421 02/09/2026 14:55:33 MB-L3-01Mainboard Lantai 3 L3-AI-03 Analog Input 3 3.12 V
10422 02/09/2026 14:55:33 MB-L3-01Mainboard Lantai 3 L3-SHT-03-RH SHT20 3 Humidity 49.20 %RH
10423 02/09/2026 14:55:33 MB-L3-01Mainboard Lantai 3 L3-SHT-02-RH SHT20 2 Humidity 48.40 %RH
10424 02/09/2026 14:55:33 MB-L3-01Mainboard Lantai 3 L3-BGT-01 Black Globe Temperature 1 29.80 °C
10425 02/09/2026 14:55:33 MB-L3-01Mainboard Lantai 3 L3-LUX-01 Illuminance / LUX 1 23.70 lux
10426 02/09/2026 14:55:33 MB-L3-01Mainboard Lantai 3 L3-RAD-02 Radiation 2 1.00 W/m²
10427 02/09/2026 14:55:33 MB-L3-01Mainboard Lantai 3 L3-SHT-03-T SHT20 3 Temperature 31.70 °C
10428 02/09/2026 14:55:33 MB-L3-01Mainboard Lantai 3 L3-AI-04 Analog Input 4 3.12 V
10429 02/09/2026 14:55:33 MB-L3-01Mainboard Lantai 3 L3-BGT-02 Black Globe Temperature 2 29.70 °C
10430 02/09/2026 14:55:33 MB-L3-01Mainboard Lantai 3 L3-RAD-01 Radiation 1 1.00 W/m²
10431 02/09/2026 14:55:33 MB-L3-01Mainboard Lantai 3 L3-ST-01 Surface Temperature 1 29.90 °C
10432 02/09/2026 14:55:33 MB-L3-01Mainboard Lantai 3 L3-AI-05 Analog Input 5 3.12 V
10433 02/09/2026 14:55:33 MB-L3-01Mainboard Lantai 3 L3-SHT-02-T SHT20 2 Temperature 32.10 °C
10434 02/09/2026 14:55:33 MB-L3-01Mainboard Lantai 3 L3-BGT-03 Black Globe Temperature 3 29.20 °C
10435 02/09/2026 14:55:33 MB-L3-01Mainboard Lantai 3 L3-LUX-05 Illuminance / LUX 5 39.80 lux
10436 02/09/2026 14:55:33 MB-L3-01Mainboard Lantai 3 L3-ST-02 Surface Temperature 2 29.70 °C
10437 02/09/2026 14:55:33 MB-L3-01Mainboard Lantai 3 L3-AI-06 Analog Input 6 3.12 V
10438 02/09/2026 14:55:33 MB-L3-01Mainboard Lantai 3 L3-LUX-06 Illuminance / LUX 6 25.10 lux
10439 02/09/2026 14:55:33 MB-L3-01Mainboard Lantai 3 L3-AI-01 Analog Input 1 3.12 V
10440 02/09/2026 14:55:33 MB-L3-01Mainboard Lantai 3 L3-SHT-01-T SHT20 1 Temperature 32.10 °C
10441 02/09/2026 14:55:33 MB-L3-01Mainboard Lantai 3 L3-HFT-01 Heat Flow Temperature 1 29.40 °C
10442 02/09/2026 14:55:33 MB-L3-01Mainboard Lantai 3 L3-LUX-02 Illuminance / LUX 2 44.80 lux
10443 02/09/2026 14:55:33 MB-L3-01Mainboard Lantai 3 L3-SHT-01-RH SHT20 1 Humidity 48.40 %RH
10444 02/09/2026 14:55:33 MB-L3-01Mainboard Lantai 3 L3-AI-02 Analog Input 2 3.12 V
10445 02/09/2026 14:55:33 MB-L3-01Mainboard Lantai 3 L3-LUX-04 Illuminance / LUX 4 68.50 lux
10446 02/09/2026 14:55:33 MB-L3-01Mainboard Lantai 3 L3-HFT-02 Heat Flow Temperature 2 29.10 °C
10447 02/09/2026 14:55:33 MB-L3-01Mainboard Lantai 3 L3-LUX-03 Illuminance / LUX 3 93.10 lux
10448 02/09/2026 14:55:32 MB-L5-01Mainboard Lantai 5 L5-LUX-04 Illuminance / LUX 4 217.90 lux
10449 02/09/2026 14:55:32 MB-L5-01Mainboard Lantai 5 L5-LUX-02 Illuminance / LUX 2 132.90 lux
10450 02/09/2026 14:55:32 MB-L5-01Mainboard Lantai 5 L5-ST-01 Surface Temperature 1 30.30 °C
10451 02/09/2026 14:55:32 MB-L5-01Mainboard Lantai 5 L5-RAD-02 Radiation 2 1.00 W/m²
10452 02/09/2026 14:55:32 MB-L5-01Mainboard Lantai 5 L5-LUX-05 Illuminance / LUX 5 391.40 lux
10453 02/09/2026 14:55:32 MB-L5-01Mainboard Lantai 5 L5-AI-06 Analog Input 6 3.05 V
10454 02/09/2026 14:55:32 MB-L5-01Mainboard Lantai 5 L5-SHT-02-RH SHT20 2 Humidity 48.50 %RH
10455 02/09/2026 14:55:32 MB-L5-01Mainboard Lantai 5 L5-AI-05 Analog Input 5 3.05 V
10456 02/09/2026 14:55:32 MB-L5-01Mainboard Lantai 5 L5-SHT-03-T SHT20 3 Temperature 32.20 °C
10457 02/09/2026 14:55:32 MB-L5-01Mainboard Lantai 5 L5-SHT-02-T SHT20 2 Temperature 32.20 °C
10458 02/09/2026 14:55:32 MB-L5-01Mainboard Lantai 5 L5-SHT-03-RH SHT20 3 Humidity 49.50 %RH
10459 02/09/2026 14:55:32 MB-L5-01Mainboard Lantai 5 L5-AI-04 Analog Input 4 3.05 V
10460 02/09/2026 14:55:32 MB-L5-01Mainboard Lantai 5 L5-AI-03 Analog Input 3 3.05 V
10461 02/09/2026 14:55:32 MB-L5-01Mainboard Lantai 5 L5-RAD-01 Radiation 1 1.00 W/m²
10462 02/09/2026 14:55:32 MB-L5-01Mainboard Lantai 5 L5-AI-02 Analog Input 2 3.05 V
10463 02/09/2026 14:55:32 MB-L5-01Mainboard Lantai 5 L5-SHT-01-RH SHT20 1 Humidity 48.50 %RH
10464 02/09/2026 14:55:32 MB-L5-01Mainboard Lantai 5 L5-LUX-01 Illuminance / LUX 1 204.30 lux
10465 02/09/2026 14:55:32 MB-L5-01Mainboard Lantai 5 L5-AI-01 Analog Input 1 3.05 V
10466 02/09/2026 14:55:32 MB-L5-01Mainboard Lantai 5 L5-BGT-03 Black Globe Temperature 3 29.80 °C
10467 02/09/2026 14:55:32 MB-L5-01Mainboard Lantai 5 L5-LUX-03 Illuminance / LUX 3 166.00 lux
10468 02/09/2026 14:55:32 MB-L5-01Mainboard Lantai 5 L5-BGT-02 Black Globe Temperature 2 29.80 °C
10469 02/09/2026 14:55:32 MB-L5-01Mainboard Lantai 5 L5-BGT-01 Black Globe Temperature 1 29.90 °C
10470 02/09/2026 14:55:32 MB-L5-01Mainboard Lantai 5 L5-SHT-01-T SHT20 1 Temperature 32.30 °C
10471 02/09/2026 14:55:32 MB-L5-01Mainboard Lantai 5 L5-HFT-02 Heat Flow Temperature 2 29.90 °C
10472 02/09/2026 14:55:32 MB-L5-01Mainboard Lantai 5 L5-HFT-01 Heat Flow Temperature 1 30.10 °C
10473 02/09/2026 14:55:32 MB-L5-01Mainboard Lantai 5 L5-LUX-06 Illuminance / LUX 6 209.20 lux
10474 02/09/2026 14:55:32 MB-L5-01Mainboard Lantai 5 L5-ST-02 Surface Temperature 2 30.40 °C
10475 02/09/2026 14:55:31 MB-L3-01Mainboard Lantai 3 L3-BGT-02 Black Globe Temperature 2 29.70 °C
10476 02/09/2026 14:55:31 MB-L3-01Mainboard Lantai 3 L3-RAD-01 Radiation 1 1.00 W/m²
10477 02/09/2026 14:55:31 MB-L5-01Mainboard Lantai 5 L5-AI-05 Analog Input 5 3.05 V
10478 02/09/2026 14:55:31 MB-L5-01Mainboard Lantai 5 L5-SHT-03-T SHT20 3 Temperature 32.10 °C
10479 02/09/2026 14:55:31 MB-L5-01Mainboard Lantai 5 L5-SHT-02-T SHT20 2 Temperature 32.30 °C
10480 02/09/2026 14:55:31 MB-L5-01Mainboard Lantai 5 L5-SHT-03-RH SHT20 3 Humidity 49.70 %RH
10481 02/09/2026 14:55:31 MB-L5-01Mainboard Lantai 5 L5-AI-04 Analog Input 4 3.05 V
10482 02/09/2026 14:55:31 MB-L3-01Mainboard Lantai 3 L3-ST-01 Surface Temperature 1 29.70 °C
10483 02/09/2026 14:55:31 MB-L5-01Mainboard Lantai 5 L5-AI-03 Analog Input 3 3.05 V
10484 02/09/2026 14:55:31 MB-L3-01Mainboard Lantai 3 L3-AI-05 Analog Input 5 3.12 V
10485 02/09/2026 14:55:31 MB-L5-01Mainboard Lantai 5 L5-RAD-01 Radiation 1 1.00 W/m²
10486 02/09/2026 14:55:31 MB-L3-01Mainboard Lantai 3 L3-SHT-02-T SHT20 2 Temperature 32.10 °C
10487 02/09/2026 14:55:31 MB-L5-01Mainboard Lantai 5 L5-AI-02 Analog Input 2 3.05 V
10488 02/09/2026 14:55:31 MB-L3-01Mainboard Lantai 3 L3-BGT-03 Black Globe Temperature 3 29.10 °C
10489 02/09/2026 14:55:31 MB-L5-01Mainboard Lantai 5 L5-SHT-01-RH SHT20 1 Humidity 48.50 %RH
10490 02/09/2026 14:55:31 MB-L3-01Mainboard Lantai 3 L3-LUX-05 Illuminance / LUX 5 39.80 lux
10491 02/09/2026 14:55:31 MB-L3-01Mainboard Lantai 3 L3-ST-02 Surface Temperature 2 29.70 °C
10492 02/09/2026 14:55:31 MB-L5-01Mainboard Lantai 5 L5-LUX-01 Illuminance / LUX 1 205.30 lux
10493 02/09/2026 14:55:31 MB-L5-01Mainboard Lantai 5 L5-AI-01 Analog Input 1 3.05 V
10494 02/09/2026 14:55:31 MB-L3-01Mainboard Lantai 3 L3-AI-06 Analog Input 6 3.12 V
10495 02/09/2026 14:55:31 MB-L3-01Mainboard Lantai 3 L3-LUX-06 Illuminance / LUX 6 25.30 lux
10496 02/09/2026 14:55:31 MB-L3-01Mainboard Lantai 3 L3-AI-01 Analog Input 1 3.12 V
10497 02/09/2026 14:55:31 MB-L5-01Mainboard Lantai 5 L5-BGT-03 Black Globe Temperature 3 29.80 °C
10498 02/09/2026 14:55:31 MB-L3-01Mainboard Lantai 3 L3-SHT-01-T SHT20 1 Temperature 32.10 °C
10499 02/09/2026 14:55:31 MB-L3-01Mainboard Lantai 3 L3-HFT-01 Heat Flow Temperature 1 29.40 °C
10500 02/09/2026 14:55:31 MB-L5-01Mainboard Lantai 5 L5-LUX-03 Illuminance / LUX 3 158.90 lux
Menampilkan maksimal 100 data per halaman